sensor_id;sensor_type;location;lat;lon;timestamp;temperature;humidity
20483;DHT22;10400;53.198;6.592;2022-07-19T00:01:34;20.70;99.90
20483;DHT22;10400;53.198;6.592;2022-07-19T00:04:00;20.80;99.90
20483;DHT22;10400;53.198;6.592;2022-07-19T00:06:25;20.80;99.90
20483;DHT22;10400;53.198;6.592;2022-07-19T00:08:51;20.80;99.90
20483;DHT22;10400;53.198;6.592;2022-07-19T00:11:17;20.70;99.90
20483;DHT22;10400;53.198;6.592;2022-07-19T00:13:43;20.70;99.90
20483;DHT22;10400;53.198;6.592;2022-07-19T00:16:09;20.60;99.90
20483;DHT22;10400;53.198;6.592;2022-07-19T00:18:35;20.60;99.90
20483;DHT22;10400;53.198;6.592;2022-07-19T00:21:00;20.60;99.90
20483;DHT22;10400;53.198;6.592;2022-07-19T00:23:26;20.60;99.90
20483;DHT22;10400;53.198;6.592;2022-07-19T00:25:52;20.60;99.90
20483;DHT22;10400;53.198;6.592;2022-07-19T00:28:17;20.60;99.90
20483;DHT22;10400;53.198;6.592;2022-07-19T00:30:43;20.60;99.90
20483;DHT22;10400;53.198;6.592;2022-07-19T00:33:08;20.60;99.90
20483;DHT22;10400;53.198;6.592;2022-07-19T00:35:36;20.60;99.90
20483;DHT22;10400;53.198;6.592;2022-07-19T00:38:06;20.50;99.90
20483;DHT22;10400;53.198;6.592;2022-07-19T00:40:32;20.50;99.90
20483;DHT22;10400;53.198;6.592;2022-07-19T00:42:58;20.50;99.90
20483;DHT22;10400;53.198;6.592;2022-07-19T00:45:23;20.50;99.90
20483;DHT22;10400;53.198;6.592;2022-07-19T00:47:49;20.40;99.90
20483;DHT22;10400;53.198;6.592;2022-07-19T00:50:15;20.30;99.90
20483;DHT22;10400;53.198;6.592;2022-07-19T00:52:42;20.30;99.90
20483;DHT22;10400;53.198;6.592;2022-07-19T00:55:09;20.30;99.90
20483;DHT22;10400;53.198;6.592;2022-07-19T00:57:36;20.30;99.90
20483;DHT22;10400;53.198;6.592;2022-07-19T01:00:05;20.30;99.90
20483;DHT22;10400;53.198;6.592;2022-07-19T01:02:31;20.20;99.90
20483;DHT22;10400;53.198;6.592;2022-07-19T01:04:57;20.20;99.90
20483;DHT22;10400;53.198;6.592;2022-07-19T01:07:24;20.20;99.90
20483;DHT22;10400;53.198;6.592;2022-07-19T01:09:50;20.20;99.90
20483;DHT22;10400;53.198;6.592;2022-07-19T01:12:17;20.20;99.90
20483;DHT22;10400;53.198;6.592;2022-07-19T01:14:43;20.10;99.90
20483;DHT22;10400;53.198;6.592;2022-07-19T01:17:09;20.10;99.90
20483;DHT22;10400;53.198;6.592;2022-07-19T01:19:34;20.00;99.90
20483;DHT22;10400;53.198;6.592;2022-07-19T01:22:00;20.10;99.90
20483;DHT22;10400;53.198;6.592;2022-07-19T01:24:26;20.00;99.90
20483;DHT22;10400;53.198;6.592;2022-07-19T01:26:52;19.90;99.90
20483;DHT22;10400;53.198;6.592;2022-07-19T01:29:18;19.90;99.90
20483;DHT22;10400;53.198;6.592;2022-07-19T01:31:44;19.80;99.90
20483;DHT22;10400;53.198;6.592;2022-07-19T01:34:10;19.80;99.90
20483;DHT22;10400;53.198;6.592;2022-07-19T01:36:35;19.80;99.90
20483;DHT22;10400;53.198;6.592;2022-07-19T01:39:01;19.80;99.90
20483;DHT22;10400;53.198;6.592;2022-07-19T01:41:27;19.80;99.90
20483;DHT22;10400;53.198;6.592;2022-07-19T01:43:52;19.80;99.90
20483;DHT22;10400;53.198;6.592;2022-07-19T01:46:18;19.80;99.90
20483;DHT22;10400;53.198;6.592;2022-07-19T01:48:44;19.80;99.90
20483;DHT22;10400;53.198;6.592;2022-07-19T01:51:09;19.70;99.90
20483;DHT22;10400;53.198;6.592;2022-07-19T01:53:35;19.70;99.90
20483;DHT22;10400;53.198;6.592;2022-07-19T01:56:04;19.70;99.90
20483;DHT22;10400;53.198;6.592;2022-07-19T01:58:30;19.70;99.90
20483;DHT22;10400;53.198;6.592;2022-07-19T02:00:56;19.70;99.90
20483;DHT22;10400;53.198;6.592;2022-07-19T02:03:21;19.70;99.90
20483;DHT22;10400;53.198;6.592;2022-07-19T02:05:47;19.60;99.90
20483;DHT22;10400;53.198;6.592;2022-07-19T02:08:13;19.60;99.90
20483;DHT22;10400;53.198;6.592;2022-07-19T02:10:39;19.50;99.90
20483;DHT22;10400;53.198;6.592;2022-07-19T02:13:04;19.50;99.90
20483;DHT22;10400;53.198;6.592;2022-07-19T02:15:30;19.50;99.90
20483;DHT22;10400;53.198;6.592;2022-07-19T02:17:56;19.40;99.90
20483;DHT22;10400;53.198;6.592;2022-07-19T02:20:22;19.40;99.90
20483;DHT22;10400;53.198;6.592;2022-07-19T02:22:47;19.40;99.90
20483;DHT22;10400;53.198;6.592;2022-07-19T02:25:13;19.30;99.90
20483;DHT22;10400;53.198;6.592;2022-07-19T02:27:39;19.30;99.90
20483;DHT22;10400;53.198;6.592;2022-07-19T02:30:05;19.30;99.90
20483;DHT22;10400;53.198;6.592;2022-07-19T02:32:31;19.30;99.90
20483;DHT22;10400;53.198;6.592;2022-07-19T02:34:57;19.30;99.90
20483;DHT22;10400;53.198;6.592;2022-07-19T02:37:22;19.30;99.90
20483;DHT22;10400;53.198;6.592;2022-07-19T02:39:48;19.20;99.90
20483;DHT22;10400;53.198;6.592;2022-07-19T02:42:13;19.20;99.90
20483;DHT22;10400;53.198;6.592;2022-07-19T02:44:39;19.20;99.90
20483;DHT22;10400;53.198;6.592;2022-07-19T02:47:05;19.20;99.90
20483;DHT22;10400;53.198;6.592;2022-07-19T02:49:30;19.10;99.90
20483;DHT22;10400;53.198;6.592;2022-07-19T02:51:56;19.10;99.90
20483;DHT22;10400;53.198;6.592;2022-07-19T02:54:21;19.10;99.90
20483;DHT22;10400;53.198;6.592;2022-07-19T02:56:47;19.10;99.90
20483;DHT22;10400;53.198;6.592;2022-07-19T02:59:13;19.10;99.90
20483;DHT22;10400;53.198;6.592;2022-07-19T03:01:38;19.10;99.90
20483;DHT22;10400;53.198;6.592;2022-07-19T03:04:04;19.10;99.90
20483;DHT22;10400;53.198;6.592;2022-07-19T03:06:30;19.10;99.90
20483;DHT22;10400;53.198;6.592;2022-07-19T03:08:56;19.10;99.90
20483;DHT22;10400;53.198;6.592;2022-07-19T03:11:22;19.00;99.90
20483;DHT22;10400;53.198;6.592;2022-07-19T03:13:47;18.90;99.90
20483;DHT22;10400;53.198;6.592;2022-07-19T03:16:13;18.90;99.90
20483;DHT22;10400;53.198;6.592;2022-07-19T03:18:39;18.90;99.90
20483;DHT22;10400;53.198;6.592;2022-07-19T03:21:04;18.90;99.90
20483;DHT22;10400;53.198;6.592;2022-07-19T03:23:31;18.90;99.90
20483;DHT22;10400;53.198;6.592;2022-07-19T03:25:57;18.80;99.90
20483;DHT22;10400;53.198;6.592;2022-07-19T03:28:23;18.80;99.90
20483;DHT22;10400;53.198;6.592;2022-07-19T03:30:49;18.80;99.90
20483;DHT22;10400;53.198;6.592;2022-07-19T03:33:14;18.80;99.90
20483;DHT22;10400;53.198;6.592;2022-07-19T03:35:42;18.70;99.90
20483;DHT22;10400;53.198;6.592;2022-07-19T03:38:09;18.80;99.90
20483;DHT22;10400;53.198;6.592;2022-07-19T03:40:35;18.70;99.90
20483;DHT22;10400;53.198;6.592;2022-07-19T03:43:01;18.70;99.90
20483;DHT22;10400;53.198;6.592;2022-07-19T03:45:26;18.70;99.90
20483;DHT22;10400;53.198;6.592;2022-07-19T03:47:52;18.70;99.90
20483;DHT22;10400;53.198;6.592;2022-07-19T03:50:18;18.70;99.90
20483;DHT22;10400;53.198;6.592;2022-07-19T03:52:43;18.80;99.90
20483;DHT22;10400;53.198;6.592;2022-07-19T03:55:09;18.70;99.90
20483;DHT22;10400;53.198;6.592;2022-07-19T03:57:34;18.80;99.90
20483;DHT22;10400;53.198;6.592;2022-07-19T04:00:00;18.80;99.90
20483;DHT22;10400;53.198;6.592;2022-07-19T04:02:26;18.80;99.90
20483;DHT22;10400;53.198;6.592;2022-07-19T04:04:51;18.80;99.90
20483;DHT22;10400;53.198;6.592;2022-07-19T04:07:17;18.80;99.90
20483;DHT22;10400;53.198;6.592;2022-07-19T04:09:42;18.80;99.90
20483;DHT22;10400;53.198;6.592;2022-07-19T04:12:08;18.80;99.90
20483;DHT22;10400;53.198;6.592;2022-07-19T04:14:34;18.80;99.90
20483;DHT22;10400;53.198;6.592;2022-07-19T04:16:59;18.90;99.90
20483;DHT22;10400;53.198;6.592;2022-07-19T04:19:25;18.90;99.90
20483;DHT22;10400;53.198;6.592;2022-07-19T04:21:50;18.90;99.90
20483;DHT22;10400;53.198;6.592;2022-07-19T04:24:16;19.00;99.90
20483;DHT22;10400;53.198;6.592;2022-07-19T04:26:42;19.00;99.90
20483;DHT22;10400;53.198;6.592;2022-07-19T04:29:07;19.00;99.90
20483;DHT22;10400;53.198;6.592;2022-07-19T04:31:33;19.10;99.90
20483;DHT22;10400;53.198;6.592;2022-07-19T04:33:58;19.10;99.90
20483;DHT22;10400;53.198;6.592;2022-07-19T04:36:24;19.10;99.90
20483;DHT22;10400;53.198;6.592;2022-07-19T04:38:49;19.20;99.90
20483;DHT22;10400;53.198;6.592;2022-07-19T04:41:15;19.20;99.90
20483;DHT22;10400;53.198;6.592;2022-07-19T04:43:41;19.30;99.90
20483;DHT22;10400;53.198;6.592;2022-07-19T04:46:06;19.40;99.90
20483;DHT22;10400;53.198;6.592;2022-07-19T04:48:33;19.30;99.90
20483;DHT22;10400;53.198;6.592;2022-07-19T04:50:58;19.40;99.90
20483;DHT22;10400;53.198;6.592;2022-07-19T04:53:24;19.40;99.90
20483;DHT22;10400;53.198;6.592;2022-07-19T04:55:49;19.50;99.90
20483;DHT22;10400;53.198;6.592;2022-07-19T04:58:15;19.50;99.90
20483;DHT22;10400;53.198;6.592;2022-07-19T05:00:41;19.60;99.90
20483;DHT22;10400;53.198;6.592;2022-07-19T05:03:06;19.60;99.90
20483;DHT22;10400;53.198;6.592;2022-07-19T05:05:32;19.60;99.90
20483;DHT22;10400;53.198;6.592;2022-07-19T05:07:58;19.70;99.90
20483;DHT22;10400;53.198;6.592;2022-07-19T05:10:23;19.80;99.90
20483;DHT22;10400;53.198;6.592;2022-07-19T05:12:49;19.90;99.90
20483;DHT22;10400;53.198;6.592;2022-07-19T05:15:15;19.90;99.90
20483;DHT22;10400;53.198;6.592;2022-07-19T05:17:40;20.00;99.90
20483;DHT22;10400;53.198;6.592;2022-07-19T05:20:07;20.10;99.90
20483;DHT22;10400;53.198;6.592;2022-07-19T05:22:33;20.20;99.90
20483;DHT22;10400;53.198;6.592;2022-07-19T05:24:59;20.30;99.90
20483;DHT22;10400;53.198;6.592;2022-07-19T05:27:25;20.50;99.90
20483;DHT22;10400;53.198;6.592;2022-07-19T05:29:50;20.60;99.90
20483;DHT22;10400;53.198;6.592;2022-07-19T05:32:16;20.70;99.90
20483;DHT22;10400;53.198;6.592;2022-07-19T05:34:42;20.80;99.90
20483;DHT22;10400;53.198;6.592;2022-07-19T05:37:07;20.90;99.90
20483;DHT22;10400;53.198;6.592;2022-07-19T05:39:33;21.00;99.90
20483;DHT22;10400;53.198;6.592;2022-07-19T05:41:59;21.10;99.90
20483;DHT22;10400;53.198;6.592;2022-07-19T05:44:24;21.10;99.90
20483;DHT22;10400;53.198;6.592;2022-07-19T05:46:50;21.20;99.90
20483;DHT22;10400;53.198;6.592;2022-07-19T05:49:15;21.30;99.90
20483;DHT22;10400;53.198;6.592;2022-07-19T05:51:41;21.40;99.90
20483;DHT22;10400;53.198;6.592;2022-07-19T05:54:07;21.50;99.90
20483;DHT22;10400;53.198;6.592;2022-07-19T05:56:34;21.50;99.90
20483;DHT22;10400;53.198;6.592;2022-07-19T05:58:59;21.60;99.90
20483;DHT22;10400;53.198;6.592;2022-07-19T06:01:27;21.70;99.90
20483;DHT22;10400;53.198;6.592;2022-07-19T06:03:54;21.80;99.90
20483;DHT22;10400;53.198;6.592;2022-07-19T06:06:21;21.80;99.90
20483;DHT22;10400;53.198;6.592;2022-07-19T06:08:47;21.90;99.90
20483;DHT22;10400;53.198;6.592;2022-07-19T06:11:14;22.00;99.90
20483;DHT22;10400;53.198;6.592;2022-07-19T06:13:41;22.10;99.90
20483;DHT22;10400;53.198;6.592;2022-07-19T06:16:07;22.10;99.90
20483;DHT22;10400;53.198;6.592;2022-07-19T06:18:33;22.20;99.90
20483;DHT22;10400;53.198;6.592;2022-07-19T06:21:04;22.30;99.90
20483;DHT22;10400;53.198;6.592;2022-07-19T06:23:30;22.40;99.90
20483;DHT22;10400;53.198;6.592;2022-07-19T06:25:56;22.50;99.90
20483;DHT22;10400;53.198;6.592;2022-07-19T06:28:22;22.60;99.90
20483;DHT22;10400;53.198;6.592;2022-07-19T06:30:48;22.70;99.90
20483;DHT22;10400;53.198;6.592;2022-07-19T06:33:13;22.80;99.90
20483;DHT22;10400;53.198;6.592;2022-07-19T06:35:40;23.00;99.90
20483;DHT22;10400;53.198;6.592;2022-07-19T06:38:06;23.00;99.90
20483;DHT22;10400;53.198;6.592;2022-07-19T06:40:32;23.10;99.90
20483;DHT22;10400;53.198;6.592;2022-07-19T06:42:58;23.20;99.90
20483;DHT22;10400;53.198;6.592;2022-07-19T06:45:24;23.30;99.90
20483;DHT22;10400;53.198;6.592;2022-07-19T06:47:49;23.50;99.90
20483;DHT22;10400;53.198;6.592;2022-07-19T06:50:17;23.50;99.90
20483;DHT22;10400;53.198;6.592;2022-07-19T06:52:43;23.70;99.90
20483;DHT22;10400;53.198;6.592;2022-07-19T06:55:09;23.70;99.90
20483;DHT22;10400;53.198;6.592;2022-07-19T06:57:34;23.90;99.90
20483;DHT22;10400;53.198;6.592;2022-07-19T07:00:00;24.00;99.90
20483;DHT22;10400;53.198;6.592;2022-07-19T07:02:26;24.10;99.90
20483;DHT22;10400;53.198;6.592;2022-07-19T07:04:51;24.20;99.90
20483;DHT22;10400;53.198;6.592;2022-07-19T07:07:17;24.20;99.90
20483;DHT22;10400;53.198;6.592;2022-07-19T07:09:42;24.30;99.90
20483;DHT22;10400;53.198;6.592;2022-07-19T07:12:08;24.40;99.90
20483;DHT22;10400;53.198;6.592;2022-07-19T07:14:34;24.50;99.90
20483;DHT22;10400;53.198;6.592;2022-07-19T07:17:00;24.60;99.90
20483;DHT22;10400;53.198;6.592;2022-07-19T07:19:26;24.80;99.90
20483;DHT22;10400;53.198;6.592;2022-07-19T07:21:52;24.90;99.90
20483;DHT22;10400;53.198;6.592;2022-07-19T07:24:17;25.00;99.90
20483;DHT22;10400;53.198;6.592;2022-07-19T07:26:43;25.20;99.90
20483;DHT22;10400;53.198;6.592;2022-07-19T07:29:09;25.20;99.90
20483;DHT22;10400;53.198;6.592;2022-07-19T07:31:35;25.30;99.90
20483;DHT22;10400;53.198;6.592;2022-07-19T07:34:01;25.40;99.90
20483;DHT22;10400;53.198;6.592;2022-07-19T07:36:28;25.50;99.90
20483;DHT22;10400;53.198;6.592;2022-07-19T07:38:54;25.60;99.90
20483;DHT22;10400;53.198;6.592;2022-07-19T07:41:19;25.70;99.90
20483;DHT22;10400;53.198;6.592;2022-07-19T07:43:45;25.90;99.90
20483;DHT22;10400;53.198;6.592;2022-07-19T07:46:11;26.00;99.90
20483;DHT22;10400;53.198;6.592;2022-07-19T07:48:36;26.10;99.90
20483;DHT22;10400;53.198;6.592;2022-07-19T07:51:02;26.20;99.90
20483;DHT22;10400;53.198;6.592;2022-07-19T07:53:27;26.30;99.90
20483;DHT22;10400;53.198;6.592;2022-07-19T07:55:53;26.30;99.90
20483;DHT22;10400;53.198;6.592;2022-07-19T07:58:19;26.40;99.90
20483;DHT22;10400;53.198;6.592;2022-07-19T08:00:44;26.60;99.90
20483;DHT22;10400;53.198;6.592;2022-07-19T08:03:10;26.60;99.90
20483;DHT22;10400;53.198;6.592;2022-07-19T08:05:36;26.80;99.90
20483;DHT22;10400;53.198;6.592;2022-07-19T08:08:01;26.80;99.90
20483;DHT22;10400;53.198;6.592;2022-07-19T08:10:29;27.00;99.90
20483;DHT22;10400;53.198;6.592;2022-07-19T08:12:57;27.10;99.90
20483;DHT22;10400;53.198;6.592;2022-07-19T08:15:23;27.20;99.90
20483;DHT22;10400;53.198;6.592;2022-07-19T08:17:49;27.30;99.90
20483;DHT22;10400;53.198;6.592;2022-07-19T08:20:15;27.40;99.90
20483;DHT22;10400;53.198;6.592;2022-07-19T08:22:40;27.40;99.90
20483;DHT22;10400;53.198;6.592;2022-07-19T08:25:07;27.50;99.90
20483;DHT22;10400;53.198;6.592;2022-07-19T08:27:32;27.50;99.90
20483;DHT22;10400;53.198;6.592;2022-07-19T08:29:59;27.70;99.90
20483;DHT22;10400;53.198;6.592;2022-07-19T08:32:24;27.80;99.90
20483;DHT22;10400;53.198;6.592;2022-07-19T08:34:50;27.90;99.90
20483;DHT22;10400;53.198;6.592;2022-07-19T08:37:16;28.10;99.90
20483;DHT22;10400;53.198;6.592;2022-07-19T08:39:41;28.20;99.90
20483;DHT22;10400;53.198;6.592;2022-07-19T08:42:07;28.30;99.90
20483;DHT22;10400;53.198;6.592;2022-07-19T08:44:35;28.40;99.90
20483;DHT22;10400;53.198;6.592;2022-07-19T08:47:05;28.50;99.90
20483;DHT22;10400;53.198;6.592;2022-07-19T08:49:30;28.70;99.90
20483;DHT22;10400;53.198;6.592;2022-07-19T08:51:56;28.80;99.90
20483;DHT22;10400;53.198;6.592;2022-07-19T08:54:23;28.90;99.90
20483;DHT22;10400;53.198;6.592;2022-07-19T08:56:49;28.90;99.90
20483;DHT22;10400;53.198;6.592;2022-07-19T08:59:33;28.90;99.90
20483;DHT22;10400;53.198;6.592;2022-07-19T09:01:59;28.90;99.90
20483;DHT22;10400;53.198;6.592;2022-07-19T09:04:24;29.00;99.90
20483;DHT22;10400;53.198;6.592;2022-07-19T09:06:51;29.20;99.90
20483;DHT22;10400;53.198;6.592;2022-07-19T09:09:23;29.20;99.90
20483;DHT22;10400;53.198;6.592;2022-07-19T09:11:51;29.40;99.90
20483;DHT22;10400;53.198;6.592;2022-07-19T09:14:22;29.50;99.90
20483;DHT22;10400;53.198;6.592;2022-07-19T09:16:50;29.60;99.90
20483;DHT22;10400;53.198;6.592;2022-07-19T09:19:16;29.60;99.90
20483;DHT22;10400;53.198;6.592;2022-07-19T09:21:56;29.70;99.90
20483;DHT22;10400;53.198;6.592;2022-07-19T09:24:22;29.80;99.90
20483;DHT22;10400;53.198;6.592;2022-07-19T09:29:25;30.10;99.90
20483;DHT22;10400;53.198;6.592;2022-07-19T09:32:12;30.20;99.90
20483;DHT22;10400;53.198;6.592;2022-07-19T09:34:51;30.20;99.90
20483;DHT22;10400;53.198;6.592;2022-07-19T09:39:46;30.40;99.90
20483;DHT22;10400;53.198;6.592;2022-07-19T09:42:14;30.50;99.90
20483;DHT22;10400;53.198;6.592;2022-07-19T09:44:40;30.70;99.90
20483;DHT22;10400;53.198;6.592;2022-07-19T09:47:06;30.80;99.90
20483;DHT22;10400;53.198;6.592;2022-07-19T09:49:32;30.80;99.90
20483;DHT22;10400;53.198;6.592;2022-07-19T09:51:57;30.90;99.90
20483;DHT22;10400;53.198;6.592;2022-07-19T09:54:27;31.00;99.90
20483;DHT22;10400;53.198;6.592;2022-07-19T09:56:55;31.10;99.90
20483;DHT22;10400;53.198;6.592;2022-07-19T09:59:22;31.10;99.90
20483;DHT22;10400;53.198;6.592;2022-07-19T10:01:49;31.20;99.90
20483;DHT22;10400;53.198;6.592;2022-07-19T10:04:18;31.30;99.90
20483;DHT22;10400;53.198;6.592;2022-07-19T10:06:47;31.40;99.90
20483;DHT22;10400;53.198;6.592;2022-07-19T10:09:16;31.50;99.90
20483;DHT22;10400;53.198;6.592;2022-07-19T10:11:42;31.60;99.90
20483;DHT22;10400;53.198;6.592;2022-07-19T10:14:09;31.70;99.90
20483;DHT22;10400;53.198;6.592;2022-07-19T10:19:26;31.90;99.90
20483;DHT22;10400;53.198;6.592;2022-07-19T10:21:53;31.90;99.90
20483;DHT22;10400;53.198;6.592;2022-07-19T10:24:58;32.10;99.90
20483;DHT22;10400;53.198;6.592;2022-07-19T10:29:50;32.20;99.90
20483;DHT22;10400;53.198;6.592;2022-07-19T10:32:16;32.30;99.90
20483;DHT22;10400;53.198;6.592;2022-07-19T10:34:43;32.30;99.90
20483;DHT22;10400;53.198;6.592;2022-07-19T10:37:11;32.30;99.90
20483;DHT22;10400;53.198;6.592;2022-07-19T10:39:38;32.40;99.90
20483;DHT22;10400;53.198;6.592;2022-07-19T10:44:36;32.70;99.90
20483;DHT22;10400;53.198;6.592;2022-07-19T10:50:05;32.80;99.90
20483;DHT22;10400;53.198;6.592;2022-07-19T10:52:34;32.90;99.90
20483;DHT22;10400;53.198;6.592;2022-07-19T10:57:42;33.20;99.90
20483;DHT22;10400;53.198;6.592;2022-07-19T11:00:23;33.20;99.90
20483;DHT22;10400;53.198;6.592;2022-07-19T11:02:51;33.10;99.90
20483;DHT22;10400;53.198;6.592;2022-07-19T11:05:23;33.30;99.90
20483;DHT22;10400;53.198;6.592;2022-07-19T11:07:52;33.40;99.90
20483;DHT22;10400;53.198;6.592;2022-07-19T11:10:23;33.40;99.90
20483;DHT22;10400;53.198;6.592;2022-07-19T11:12:49;33.50;99.90
20483;DHT22;10400;53.198;6.592;2022-07-19T11:15:15;33.60;99.90
20483;DHT22;10400;53.198;6.592;2022-07-19T11:18:04;33.70;99.90
20483;DHT22;10400;53.198;6.592;2022-07-19T11:20:32;33.60;99.90
20483;DHT22;10400;53.198;6.592;2022-07-19T11:23:00;33.70;99.90
20483;DHT22;10400;53.198;6.592;2022-07-19T11:25:28;33.70;99.90
20483;DHT22;10400;53.198;6.592;2022-07-19T11:27:54;33.70;99.90
20483;DHT22;10400;53.198;6.592;2022-07-19T11:30:22;33.70;99.90
20483;DHT22;10400;53.198;6.592;2022-07-19T11:32:57;33.80;99.90
20483;DHT22;10400;53.198;6.592;2022-07-19T11:35:23;33.90;99.90
20483;DHT22;10400;53.198;6.592;2022-07-19T11:37:52;34.00;99.90
20483;DHT22;10400;53.198;6.592;2022-07-19T11:40:19;34.10;99.90
20483;DHT22;10400;53.198;6.592;2022-07-19T11:42:47;33.90;99.90
20483;DHT22;10400;53.198;6.592;2022-07-19T11:45:19;34.10;99.90
20483;DHT22;10400;53.198;6.592;2022-07-19T11:47:53;34.20;99.90
20483;DHT22;10400;53.198;6.592;2022-07-19T11:50:22;34.30;99.90
20483;DHT22;10400;53.198;6.592;2022-07-19T11:52:54;34.20;99.90
20483;DHT22;10400;53.198;6.592;2022-07-19T11:55:33;34.10;99.90
20483;DHT22;10400;53.198;6.592;2022-07-19T11:58:08;34.10;99.90
20483;DHT22;10400;53.198;6.592;2022-07-19T12:00:35;34.30;99.90
20483;DHT22;10400;53.198;6.592;2022-07-19T12:03:04;34.40;99.90
20483;DHT22;10400;53.198;6.592;2022-07-19T12:05:35;34.50;99.90
20483;DHT22;10400;53.198;6.592;2022-07-19T12:08:04;34.50;99.90
20483;DHT22;10400;53.198;6.592;2022-07-19T12:13:03;34.60;99.90
20483;DHT22;10400;53.198;6.592;2022-07-19T12:18:13;34.80;99.90
20483;DHT22;10400;53.198;6.592;2022-07-19T12:20:39;34.80;99.90
20483;DHT22;10400;53.198;6.592;2022-07-19T12:23:18;34.80;99.90
20483;DHT22;10400;53.198;6.592;2022-07-19T12:25:49;34.80;99.90
20483;DHT22;10400;53.198;6.592;2022-07-19T12:28:14;34.80;99.90
20483;DHT22;10400;53.198;6.592;2022-07-19T12:30:40;35.00;99.90
20483;DHT22;10400;53.198;6.592;2022-07-19T12:33:12;35.00;99.90
20483;DHT22;10400;53.198;6.592;2022-07-19T12:35:46;35.00;99.90
20483;DHT22;10400;53.198;6.592;2022-07-19T12:38:13;35.10;99.90
20483;DHT22;10400;53.198;6.592;2022-07-19T12:40:41;35.10;99.90
20483;DHT22;10400;53.198;6.592;2022-07-19T12:43:08;35.30;99.90
20483;DHT22;10400;53.198;6.592;2022-07-19T12:45:44;35.30;99.90
20483;DHT22;10400;53.198;6.592;2022-07-19T12:48:14;35.40;99.90
20483;DHT22;10400;53.198;6.592;2022-07-19T12:50:45;35.50;99.90
20483;DHT22;10400;53.198;6.592;2022-07-19T12:53:12;35.50;99.90
20483;DHT22;10400;53.198;6.592;2022-07-19T12:55:40;35.50;99.90
20483;DHT22;10400;53.198;6.592;2022-07-19T12:58:07;35.70;99.90
20483;DHT22;10400;53.198;6.592;2022-07-19T13:00:34;35.60;99.90
20483;DHT22;10400;53.198;6.592;2022-07-19T13:03:00;35.70;99.90
20483;DHT22;10400;53.198;6.592;2022-07-19T13:05:27;35.80;99.90
20483;DHT22;10400;53.198;6.592;2022-07-19T13:07:53;35.60;99.90
20483;DHT22;10400;53.198;6.592;2022-07-19T13:10:19;35.60;99.90
20483;DHT22;10400;53.198;6.592;2022-07-19T13:12:45;35.70;99.90
20483;DHT22;10400;53.198;6.592;2022-07-19T13:15:12;35.80;99.90
20483;DHT22;10400;53.198;6.592;2022-07-19T13:17:38;35.90;99.90
20483;DHT22;10400;53.198;6.592;2022-07-19T13:20:06;36.00;99.90
20483;DHT22;10400;53.198;6.592;2022-07-19T13:22:35;35.90;99.90
20483;DHT22;10400;53.198;6.592;2022-07-19T13:25:03;36.00;99.90
20483;DHT22;10400;53.198;6.592;2022-07-19T13:27:30;36.10;99.90
20483;DHT22;10400;53.198;6.592;2022-07-19T13:29:55;36.20;99.90
20483;DHT22;10400;53.198;6.592;2022-07-19T13:32:21;36.20;99.90
20483;DHT22;10400;53.198;6.592;2022-07-19T13:34:47;36.00;99.90
20483;DHT22;10400;53.198;6.592;2022-07-19T13:37:12;36.10;99.90
20483;DHT22;10400;53.198;6.592;2022-07-19T13:39:38;36.10;99.90
20483;DHT22;10400;53.198;6.592;2022-07-19T13:42:04;36.00;99.90
20483;DHT22;10400;53.198;6.592;2022-07-19T13:44:30;36.00;99.90
20483;DHT22;10400;53.198;6.592;2022-07-19T13:46:56;36.10;99.90
20483;DHT22;10400;53.198;6.592;2022-07-19T13:49:23;36.20;99.90
20483;DHT22;10400;53.198;6.592;2022-07-19T13:51:49;36.20;99.90
20483;DHT22;10400;53.198;6.592;2022-07-19T13:54:16;36.30;99.90
20483;DHT22;10400;53.198;6.592;2022-07-19T13:56:42;36.30;99.90
20483;DHT22;10400;53.198;6.592;2022-07-19T13:59:08;36.40;99.90
20483;DHT22;10400;53.198;6.592;2022-07-19T14:01:34;36.50;99.90
20483;DHT22;10400;53.198;6.592;2022-07-19T14:04:00;36.30;99.90
20483;DHT22;10400;53.198;6.592;2022-07-19T14:06:26;36.40;99.90
20483;DHT22;10400;53.198;6.592;2022-07-19T14:08:52;36.30;99.90
20483;DHT22;10400;53.198;6.592;2022-07-19T14:11:18;36.30;99.90
20483;DHT22;10400;53.198;6.592;2022-07-19T14:13:44;36.50;99.90
20483;DHT22;10400;53.198;6.592;2022-07-19T14:16:09;36.60;99.90
20483;DHT22;10400;53.198;6.592;2022-07-19T14:18:35;36.70;99.90
20483;DHT22;10400;53.198;6.592;2022-07-19T14:21:01;36.80;99.90
20483;DHT22;10400;53.198;6.592;2022-07-19T14:23:27;36.70;99.90
20483;DHT22;10400;53.198;6.592;2022-07-19T14:25:53;36.70;99.90
20483;DHT22;10400;53.198;6.592;2022-07-19T14:28:19;36.70;99.90
20483;DHT22;10400;53.198;6.592;2022-07-19T14:30:45;36.80;99.90
20483;DHT22;10400;53.198;6.592;2022-07-19T14:33:10;36.60;99.90
20483;DHT22;10400;53.198;6.592;2022-07-19T14:35:36;36.60;99.90
20483;DHT22;10400;53.198;6.592;2022-07-19T14:38:02;36.70;99.90
20483;DHT22;10400;53.198;6.592;2022-07-19T14:40:28;36.70;99.90
20483;DHT22;10400;53.198;6.592;2022-07-19T14:42:54;36.70;99.90
20483;DHT22;10400;53.198;6.592;2022-07-19T14:45:20;36.60;99.90
20483;DHT22;10400;53.198;6.592;2022-07-19T14:47:46;36.60;99.90
20483;DHT22;10400;53.198;6.592;2022-07-19T14:50:12;36.70;99.90
20483;DHT22;10400;53.198;6.592;2022-07-19T14:52:39;36.70;99.90
20483;DHT22;10400;53.198;6.592;2022-07-19T14:55:08;36.70;99.90
20483;DHT22;10400;53.198;6.592;2022-07-19T14:57:34;36.80;99.90
20483;DHT22;10400;53.198;6.592;2022-07-19T15:00:00;36.80;99.90
20483;DHT22;10400;53.198;6.592;2022-07-19T15:02:25;36.90;99.90
20483;DHT22;10400;53.198;6.592;2022-07-19T15:04:51;36.80;99.90
20483;DHT22;10400;53.198;6.592;2022-07-19T15:07:17;36.90;99.90
20483;DHT22;10400;53.198;6.592;2022-07-19T15:09:43;36.70;99.80
20483;DHT22;10400;53.198;6.592;2022-07-19T15:12:09;36.80;99.90
20483;DHT22;10400;53.198;6.592;2022-07-19T15:14:35;36.80;99.90
20483;DHT22;10400;53.198;6.592;2022-07-19T15:17:02;36.70;99.90
20483;DHT22;10400;53.198;6.592;2022-07-19T15:19:28;36.80;99.90
20483;DHT22;10400;53.198;6.592;2022-07-19T15:21:54;36.80;99.90
20483;DHT22;10400;53.198;6.592;2022-07-19T15:24:20;36.90;99.90
20483;DHT22;10400;53.198;6.592;2022-07-19T15:26:47;36.90;99.90
20483;DHT22;10400;53.198;6.592;2022-07-19T15:29:14;36.80;99.90
20483;DHT22;10400;53.198;6.592;2022-07-19T15:31:42;36.90;99.90
20483;DHT22;10400;53.198;6.592;2022-07-19T15:34:08;37.00;99.90
20483;DHT22;10400;53.198;6.592;2022-07-19T15:36:34;37.00;99.90
20483;DHT22;10400;53.198;6.592;2022-07-19T15:38:59;37.00;98.80
20483;DHT22;10400;53.198;6.592;2022-07-19T15:41:25;37.00;99.30
20483;DHT22;10400;53.198;6.592;2022-07-19T15:43:51;37.00;99.70
20483;DHT22;10400;53.198;6.592;2022-07-19T15:46:17;36.90;99.20
20483;DHT22;10400;53.198;6.592;2022-07-19T15:48:42;36.80;99.70
20483;DHT22;10400;53.198;6.592;2022-07-19T15:51:09;36.80;99.40